sensor_id;sensor_type;location;lat;lon;timestamp;P1;durP1;ratioP1;P2;durP2;ratioP2
10651;SDS011;5374;42.742;23.266;2022-10-03T00:02:14;3.57;;;2.50;;
10651;SDS011;5374;42.742;23.266;2022-10-03T00:05:08;3.50;;;2.70;;
10651;SDS011;5374;42.742;23.266;2022-10-03T00:08:00;4.33;;;2.60;;
10651;SDS011;5374;42.742;23.266;2022-10-03T00:10:51;3.03;;;2.73;;
10651;SDS011;5374;42.742;23.266;2022-10-03T00:13:44;2.70;;;2.50;;
10651;SDS011;5374;42.742;23.266;2022-10-03T00:16:37;4.90;;;2.60;;
10651;SDS011;5374;42.742;23.266;2022-10-03T00:19:27;3.77;;;2.63;;
10651;SDS011;5374;42.742;23.266;2022-10-03T00:22:19;4.13;;;2.63;;
10651;SDS011;5374;42.742;23.266;2022-10-03T00:25:20;3.20;;;2.63;;
10651;SDS011;5374;42.742;23.266;2022-10-03T00:28:12;2.90;;;2.60;;
10651;SDS011;5374;42.742;23.266;2022-10-03T00:31:06;3.73;;;2.33;;
10651;SDS011;5374;42.742;23.266;2022-10-03T00:33:58;3.90;;;2.63;;
10651;SDS011;5374;42.742;23.266;2022-10-03T00:36:49;3.40;;;3.10;;
10651;SDS011;5374;42.742;23.266;2022-10-03T00:39:47;6.67;;;4.40;;
10651;SDS011;5374;42.742;23.266;2022-10-03T00:51:51;8.47;;;6.60;;
10651;SDS011;5374;42.742;23.266;2022-10-03T00:54:43;7.47;;;5.77;;
10651;SDS011;5374;42.742;23.266;2022-10-03T00:57:45;6.47;;;4.30;;
10651;SDS011;5374;42.742;23.266;2022-10-03T01:00:36;4.03;;;3.33;;
10651;SDS011;5374;42.742;23.266;2022-10-03T01:03:33;5.47;;;3.00;;
10651;SDS011;5374;42.742;23.266;2022-10-03T01:06:25;5.60;;;3.00;;
10651;SDS011;5374;42.742;23.266;2022-10-03T01:09:19;4.03;;;3.13;;
10651;SDS011;5374;42.742;23.266;2022-10-03T01:12:15;3.03;;;2.73;;
10651;SDS011;5374;42.742;23.266;2022-10-03T01:15:15;3.53;;;2.43;;
10651;SDS011;5374;42.742;23.266;2022-10-03T01:18:10;2.73;;;2.53;;
10651;SDS011;5374;42.742;23.266;2022-10-03T01:21:01;5.97;;;2.60;;
10651;SDS011;5374;42.742;23.266;2022-10-03T01:26:56;4.20;;;2.97;;
10651;SDS011;5374;42.742;23.266;2022-10-03T01:29:46;6.50;;;3.67;;
10651;SDS011;5374;42.742;23.266;2022-10-03T01:32:54;5.93;;;3.67;;
10651;SDS011;5374;42.742;23.266;2022-10-03T01:35:45;4.27;;;3.30;;
10651;SDS011;5374;42.742;23.266;2022-10-03T01:38:39;3.53;;;3.23;;
10651;SDS011;5374;42.742;23.266;2022-10-03T01:44:35;5.57;;;3.03;;
10651;SDS011;5374;42.742;23.266;2022-10-03T01:47:28;4.90;;;3.67;;
10651;SDS011;5374;42.742;23.266;2022-10-03T01:50:20;4.73;;;3.13;;
10651;SDS011;5374;42.742;23.266;2022-10-03T01:53:10;5.50;;;3.33;;
10651;SDS011;5374;42.742;23.266;2022-10-03T01:56:01;3.50;;;3.10;;
10651;SDS011;5374;42.742;23.266;2022-10-03T01:58:51;3.63;;;2.93;;
10651;SDS011;5374;42.742;23.266;2022-10-03T02:01:45;3.53;;;3.13;;
10651;SDS011;5374;42.742;23.266;2022-10-03T02:04:38;4.77;;;3.00;;
10651;SDS011;5374;42.742;23.266;2022-10-03T02:07:28;9.93;;;7.40;;
10651;SDS011;5374;42.742;23.266;2022-10-03T02:10:23;7.40;;;6.00;;
10651;SDS011;5374;42.742;23.266;2022-10-03T02:13:11;7.37;;;5.43;;
10651;SDS011;5374;42.742;23.266;2022-10-03T02:16:01;7.57;;;3.97;;
10651;SDS011;5374;42.742;23.266;2022-10-03T02:18:53;6.30;;;4.20;;
10651;SDS011;5374;42.742;23.266;2022-10-03T02:21:46;4.80;;;3.17;;
10651;SDS011;5374;42.742;23.266;2022-10-03T02:24:39;3.93;;;3.20;;
10651;SDS011;5374;42.742;23.266;2022-10-03T02:27:43;4.00;;;3.17;;
10651;SDS011;5374;42.742;23.266;2022-10-03T02:30:39;4.43;;;3.20;;
10651;SDS011;5374;42.742;23.266;2022-10-03T02:39:46;5.43;;;4.17;;
10651;SDS011;5374;42.742;23.266;2022-10-03T02:58:27;6.20;;;3.30;;
10651;SDS011;5374;42.742;23.266;2022-10-03T03:01:39;7.97;;;3.30;;
10651;SDS011;5374;42.742;23.266;2022-10-03T03:07:39;5.40;;;3.00;;
10651;SDS011;5374;42.742;23.266;2022-10-03T03:10:41;8.37;;;3.10;;
10651;SDS011;5374;42.742;23.266;2022-10-03T03:13:45;8.10;;;2.90;;
10651;SDS011;5374;42.742;23.266;2022-10-03T03:16:53;9.40;;;3.43;;
10651;SDS011;5374;42.742;23.266;2022-10-03T03:19:45;6.03;;;3.00;;
10651;SDS011;5374;42.742;23.266;2022-10-03T03:22:47;7.57;;;2.97;;
10651;SDS011;5374;42.742;23.266;2022-10-03T03:28:43;7.37;;;3.10;;
10651;SDS011;5374;42.742;23.266;2022-10-03T03:31:34;5.87;;;2.90;;
10651;SDS011;5374;42.742;23.266;2022-10-03T03:34:24;9.30;;;3.23;;
10651;SDS011;5374;42.742;23.266;2022-10-03T03:37:12;6.03;;;3.00;;
10651;SDS011;5374;42.742;23.266;2022-10-03T03:40:15;6.60;;;3.00;;
10651;SDS011;5374;42.742;23.266;2022-10-03T03:43:22;6.33;;;3.27;;
10651;SDS011;5374;42.742;23.266;2022-10-03T03:46:15;6.20;;;2.53;;
10651;SDS011;5374;42.742;23.266;2022-10-03T03:49:15;9.53;;;2.90;;
10651;SDS011;5374;42.742;23.266;2022-10-03T03:52:08;7.57;;;3.23;;
10651;SDS011;5374;42.742;23.266;2022-10-03T03:55:00;5.87;;;3.00;;
10651;SDS011;5374;42.742;23.266;2022-10-03T03:57:56;7.83;;;2.90;;
10651;SDS011;5374;42.742;23.266;2022-10-03T04:00:48;7.13;;;2.63;;
10651;SDS011;5374;42.742;23.266;2022-10-03T04:03:45;5.30;;;2.77;;
10651;SDS011;5374;42.742;23.266;2022-10-03T04:06:41;7.97;;;3.10;;
10651;SDS011;5374;42.742;23.266;2022-10-03T04:09:55;6.93;;;3.07;;
10651;SDS011;5374;42.742;23.266;2022-10-03T04:15:52;8.07;;;2.70;;
10651;SDS011;5374;42.742;23.266;2022-10-03T04:18:48;5.57;;;2.53;;
10651;SDS011;5374;42.742;23.266;2022-10-03T04:21:52;3.07;;;2.60;;
10651;SDS011;5374;42.742;23.266;2022-10-03T04:24:48;5.10;;;2.93;;
10651;SDS011;5374;42.742;23.266;2022-10-03T04:30:48;4.43;;;3.50;;
10651;SDS011;5374;42.742;23.266;2022-10-03T04:33:41;4.37;;;2.50;;
10651;SDS011;5374;42.742;23.266;2022-10-03T04:36:34;3.03;;;2.57;;
10651;SDS011;5374;42.742;23.266;2022-10-03T04:39:35;4.13;;;2.63;;
10651;SDS011;5374;42.742;23.266;2022-10-03T04:42:26;5.23;;;2.60;;
10651;SDS011;5374;42.742;23.266;2022-10-03T04:45:25;3.27;;;2.57;;
10651;SDS011;5374;42.742;23.266;2022-10-03T04:48:14;3.27;;;2.73;;
10651;SDS011;5374;42.742;23.266;2022-10-03T04:51:06;4.90;;;2.73;;
10651;SDS011;5374;42.742;23.266;2022-10-03T04:53:56;4.07;;;2.57;;
10651;SDS011;5374;42.742;23.266;2022-10-03T04:56:49;5.70;;;2.83;;
10651;SDS011;5374;42.742;23.266;2022-10-03T04:59:39;7.77;;;4.13;;
10651;SDS011;5374;42.742;23.266;2022-10-03T05:02:30;8.30;;;4.90;;
10651;SDS011;5374;42.742;23.266;2022-10-03T05:05:24;9.93;;;4.80;;
10651;SDS011;5374;42.742;23.266;2022-10-03T05:08:25;6.77;;;4.67;;
10651;SDS011;5374;42.742;23.266;2022-10-03T05:11:17;7.90;;;4.43;;
10651;SDS011;5374;42.742;23.266;2022-10-03T05:14:09;5.57;;;3.83;;
10651;SDS011;5374;42.742;23.266;2022-10-03T05:16:59;8.27;;;3.90;;
10651;SDS011;5374;42.742;23.266;2022-10-03T05:19:52;6.37;;;3.37;;
10651;SDS011;5374;42.742;23.266;2022-10-03T05:22:44;7.03;;;3.30;;
10651;SDS011;5374;42.742;23.266;2022-10-03T05:25:37;6.30;;;3.40;;
10651;SDS011;5374;42.742;23.266;2022-10-03T05:28:31;11.80;;;3.60;;
10651;SDS011;5374;42.742;23.266;2022-10-03T05:31:27;6.00;;;3.70;;
10651;SDS011;5374;42.742;23.266;2022-10-03T05:34:22;6.97;;;3.20;;
10651;SDS011;5374;42.742;23.266;2022-10-03T05:40:19;9.07;;;4.10;;
10651;SDS011;5374;42.742;23.266;2022-10-03T05:43:22;8.20;;;4.23;;
10651;SDS011;5374;42.742;23.266;2022-10-03T05:46:17;5.67;;;3.77;;
10651;SDS011;5374;42.742;23.266;2022-10-03T05:49:12;14.07;;;4.20;;
10651;SDS011;5374;42.742;23.266;2022-10-03T05:52:07;6.53;;;4.07;;
10651;SDS011;5374;42.742;23.266;2022-10-03T05:55:00;9.10;;;4.03;;
10651;SDS011;5374;42.742;23.266;2022-10-03T06:07:08;7.80;;;4.40;;
10651;SDS011;5374;42.742;23.266;2022-10-03T06:13:09;5.80;;;3.70;;
10651;SDS011;5374;42.742;23.266;2022-10-03T06:15:57;6.27;;;3.63;;
10651;SDS011;5374;42.742;23.266;2022-10-03T06:18:58;9.37;;;3.80;;
10651;SDS011;5374;42.742;23.266;2022-10-03T06:22:08;7.73;;;3.23;;
10651;SDS011;5374;42.742;23.266;2022-10-03T06:40:55;9.30;;;4.07;;
10651;SDS011;5374;42.742;23.266;2022-10-03T06:43:52;9.50;;;4.07;;
10651;SDS011;5374;42.742;23.266;2022-10-03T06:50:17;8.13;;;3.63;;
10651;SDS011;5374;42.742;23.266;2022-10-03T06:53:15;5.83;;;4.00;;
10651;SDS011;5374;42.742;23.266;2022-10-03T06:56:14;10.33;;;4.80;;
10651;SDS011;5374;42.742;23.266;2022-10-03T06:59:10;8.03;;;3.73;;
10651;SDS011;5374;42.742;23.266;2022-10-03T07:02:13;8.87;;;3.97;;
10651;SDS011;5374;42.742;23.266;2022-10-03T07:11:16;9.20;;;3.90;;
10651;SDS011;5374;42.742;23.266;2022-10-03T07:20:22;8.63;;;4.80;;
10651;SDS011;5374;42.742;23.266;2022-10-03T07:23:30;5.93;;;3.83;;
10651;SDS011;5374;42.742;23.266;2022-10-03T07:30:05;5.33;;;3.37;;
10651;SDS011;5374;42.742;23.266;2022-10-03T07:36:08;8.83;;;3.17;;
10651;SDS011;5374;42.742;23.266;2022-10-03T07:42:30;4.53;;;3.20;;
10651;SDS011;5374;42.742;23.266;2022-10-03T07:45:30;4.40;;;3.60;;
10651;SDS011;5374;42.742;23.266;2022-10-03T07:51:26;8.10;;;3.23;;
10651;SDS011;5374;42.742;23.266;2022-10-03T07:54:27;3.30;;;2.97;;
10651;SDS011;5374;42.742;23.266;2022-10-03T08:00:39;4.73;;;2.80;;
10651;SDS011;5374;42.742;23.266;2022-10-03T08:03:43;4.93;;;3.20;;
10651;SDS011;5374;42.742;23.266;2022-10-03T08:06:36;10.23;;;4.40;;
10651;SDS011;5374;42.742;23.266;2022-10-03T08:09:34;9.10;;;4.83;;
10651;SDS011;5374;42.742;23.266;2022-10-03T08:12:37;8.13;;;4.50;;
10651;SDS011;5374;42.742;23.266;2022-10-03T08:15:34;6.47;;;3.97;;
10651;SDS011;5374;42.742;23.266;2022-10-03T08:21:35;6.07;;;3.20;;
10651;SDS011;5374;42.742;23.266;2022-10-03T08:24:45;3.53;;;2.50;;
10651;SDS011;5374;42.742;23.266;2022-10-03T08:30:48;2.70;;;2.07;;
10651;SDS011;5374;42.742;23.266;2022-10-03T08:33:45;4.00;;;2.20;;
10651;SDS011;5374;42.742;23.266;2022-10-03T08:39:56;3.80;;;2.00;;
10651;SDS011;5374;42.742;23.266;2022-10-03T08:42:56;2.83;;;1.90;;
10651;SDS011;5374;42.742;23.266;2022-10-03T08:45:58;2.87;;;2.20;;
10651;SDS011;5374;42.742;23.266;2022-10-03T08:48:53;5.00;;;2.33;;
10651;SDS011;5374;42.742;23.266;2022-10-03T08:54:47;3.03;;;2.20;;
10651;SDS011;5374;42.742;23.266;2022-10-03T08:57:48;3.93;;;2.13;;
10651;SDS011;5374;42.742;23.266;2022-10-03T09:00:41;3.60;;;2.50;;
10651;SDS011;5374;42.742;23.266;2022-10-03T09:03:44;2.30;;;2.10;;
10651;SDS011;5374;42.742;23.266;2022-10-03T09:19:18;4.10;;;2.40;;
10651;SDS011;5374;42.742;23.266;2022-10-03T09:22:16;5.10;;;2.10;;
10651;SDS011;5374;42.742;23.266;2022-10-03T09:25:20;5.13;;;2.10;;
10651;SDS011;5374;42.742;23.266;2022-10-03T09:31:34;2.83;;;2.37;;
10651;SDS011;5374;42.742;23.266;2022-10-03T09:34:41;3.20;;;2.33;;
10651;SDS011;5374;42.742;23.266;2022-10-03T09:37:42;6.13;;;2.00;;
10651;SDS011;5374;42.742;23.266;2022-10-03T09:43:47;4.87;;;2.70;;
10651;SDS011;5374;42.742;23.266;2022-10-03T09:50:12;2.47;;;2.00;;
10651;SDS011;5374;42.742;23.266;2022-10-03T09:53:18;3.27;;;2.00;;
10651;SDS011;5374;42.742;23.266;2022-10-03T09:56:18;3.20;;;1.80;;
10651;SDS011;5374;42.742;23.266;2022-10-03T09:59:18;2.97;;;1.97;;
10651;SDS011;5374;42.742;23.266;2022-10-03T10:02:13;2.67;;;1.53;;
10651;SDS011;5374;42.742;23.266;2022-10-03T10:05:11;2.67;;;1.87;;
10651;SDS011;5374;42.742;23.266;2022-10-03T10:08:09;4.27;;;1.90;;
10651;SDS011;5374;42.742;23.266;2022-10-03T10:11:08;3.00;;;2.00;;
10651;SDS011;5374;42.742;23.266;2022-10-03T10:20:29;5.27;;;1.70;;
10651;SDS011;5374;42.742;23.266;2022-10-03T10:23:23;1.67;;;1.30;;
10651;SDS011;5374;42.742;23.266;2022-10-03T10:29:25;2.00;;;1.27;;
10651;SDS011;5374;42.742;23.266;2022-10-03T10:38:39;1.57;;;1.20;;
10651;SDS011;5374;42.742;23.266;2022-10-03T10:41:49;1.70;;;1.40;;
10651;SDS011;5374;42.742;23.266;2022-10-03T10:51:26;3.40;;;1.50;;
10651;SDS011;5374;42.742;23.266;2022-10-03T10:57:28;2.73;;;1.73;;
10651;SDS011;5374;42.742;23.266;2022-10-03T11:00:25;2.50;;;1.70;;
10651;SDS011;5374;42.742;23.266;2022-10-03T11:09:52;2.00;;;1.80;;
10651;SDS011;5374;42.742;23.266;2022-10-03T11:19:21;2.83;;;2.63;;
10651;SDS011;5374;42.742;23.266;2022-10-03T11:35:05;5.80;;;3.07;;
10651;SDS011;5374;42.742;23.266;2022-10-03T11:38:00;3.43;;;3.07;;
10651;SDS011;5374;42.742;23.266;2022-10-03T11:40:54;3.77;;;3.47;;
10651;SDS011;5374;42.742;23.266;2022-10-03T11:47:13;3.63;;;3.33;;
10651;SDS011;5374;42.742;23.266;2022-10-03T11:56:31;4.77;;;3.80;;
10651;SDS011;5374;42.742;23.266;2022-10-03T12:02:29;5.67;;;3.63;;
10651;SDS011;5374;42.742;23.266;2022-10-03T12:05:21;4.57;;;3.60;;
10651;SDS011;5374;42.742;23.266;2022-10-03T12:08:13;3.30;;;3.00;;
10651;SDS011;5374;42.742;23.266;2022-10-03T12:11:22;4.20;;;3.00;;
10651;SDS011;5374;42.742;23.266;2022-10-03T12:14:24;3.10;;;2.90;;
10651;SDS011;5374;42.742;23.266;2022-10-03T12:17:13;3.20;;;2.90;;
10651;SDS011;5374;42.742;23.266;2022-10-03T12:20:03;3.13;;;2.83;;
10651;SDS011;5374;42.742;23.266;2022-10-03T12:22:52;3.43;;;3.00;;
10651;SDS011;5374;42.742;23.266;2022-10-03T12:25:41;3.43;;;3.13;;
10651;SDS011;5374;42.742;23.266;2022-10-03T12:28:30;2.90;;;2.70;;
10651;SDS011;5374;42.742;23.266;2022-10-03T12:31:21;3.10;;;2.90;;
10651;SDS011;5374;42.742;23.266;2022-10-03T12:34:18;3.77;;;3.23;;
10651;SDS011;5374;42.742;23.266;2022-10-03T12:37:21;5.00;;;3.00;;
10651;SDS011;5374;42.742;23.266;2022-10-03T12:40:13;3.77;;;3.13;;
10651;SDS011;5374;42.742;23.266;2022-10-03T12:43:03;3.73;;;3.43;;
10651;SDS011;5374;42.742;23.266;2022-10-03T12:45:53;3.60;;;3.30;;
10651;SDS011;5374;42.742;23.266;2022-10-03T12:48:45;3.97;;;3.50;;
10651;SDS011;5374;42.742;23.266;2022-10-03T12:54:39;3.83;;;3.57;;
10651;SDS011;5374;42.742;23.266;2022-10-03T13:00:40;6.13;;;3.93;;
10651;SDS011;5374;42.742;23.266;2022-10-03T13:03:32;4.13;;;3.10;;
10651;SDS011;5374;42.742;23.266;2022-10-03T13:06:33;5.50;;;3.10;;
10651;SDS011;5374;42.742;23.266;2022-10-03T13:09:24;5.17;;;3.30;;
10651;SDS011;5374;42.742;23.266;2022-10-03T13:12:19;3.50;;;3.30;;
10651;SDS011;5374;42.742;23.266;2022-10-03T13:15:32;4.47;;;3.30;;
10651;SDS011;5374;42.742;23.266;2022-10-03T13:21:36;3.40;;;2.70;;
10651;SDS011;5374;42.742;23.266;2022-10-03T13:24:28;3.53;;;2.57;;
10651;SDS011;5374;42.742;23.266;2022-10-03T13:27:23;2.97;;;2.77;;
10651;SDS011;5374;42.742;23.266;2022-10-03T13:30:18;2.80;;;2.60;;
10651;SDS011;5374;42.742;23.266;2022-10-03T13:33:08;3.83;;;2.40;;
10651;SDS011;5374;42.742;23.266;2022-10-03T13:35:59;4.03;;;2.50;;
10651;SDS011;5374;42.742;23.266;2022-10-03T13:41:58;3.43;;;3.13;;
10651;SDS011;5374;42.742;23.266;2022-10-03T13:44:48;3.80;;;3.40;;
10651;SDS011;5374;42.742;23.266;2022-10-03T13:47:42;3.93;;;3.57;;
10651;SDS011;5374;42.742;23.266;2022-10-03T13:50:31;3.50;;;3.00;;
10651;SDS011;5374;42.742;23.266;2022-10-03T13:53:33;3.30;;;3.00;;
10651;SDS011;5374;42.742;23.266;2022-10-03T13:56:33;3.13;;;2.83;;
10651;SDS011;5374;42.742;23.266;2022-10-03T14:02:37;3.87;;;2.37;;
10651;SDS011;5374;42.742;23.266;2022-10-03T14:08:47;3.87;;;2.47;;
10651;SDS011;5374;42.742;23.266;2022-10-03T14:11:39;3.63;;;2.27;;
10651;SDS011;5374;42.742;23.266;2022-10-03T14:14:34;7.53;;;2.20;;
10651;SDS011;5374;42.742;23.266;2022-10-03T14:17:26;2.77;;;2.10;;
10651;SDS011;5374;42.742;23.266;2022-10-03T14:20:21;2.30;;;2.10;;
10651;SDS011;5374;42.742;23.266;2022-10-03T14:23:13;3.50;;;1.90;;
10651;SDS011;5374;42.742;23.266;2022-10-03T14:26:02;2.73;;;2.10;;
10651;SDS011;5374;42.742;23.266;2022-10-03T14:28:52;2.70;;;1.70;;
10651;SDS011;5374;42.742;23.266;2022-10-03T14:31:44;3.37;;;1.97;;
10651;SDS011;5374;42.742;23.266;2022-10-03T14:34:37;4.43;;;2.00;;
10651;SDS011;5374;42.742;23.266;2022-10-03T14:37:29;4.30;;;2.37;;
10651;SDS011;5374;42.742;23.266;2022-10-03T14:40:24;3.10;;;2.80;;
10651;SDS011;5374;42.742;23.266;2022-10-03T14:46:23;3.23;;;2.67;;
10651;SDS011;5374;42.742;23.266;2022-10-03T14:49:15;3.90;;;3.03;;
10651;SDS011;5374;42.742;23.266;2022-10-03T14:52:04;2.80;;;2.60;;
10651;SDS011;5374;42.742;23.266;2022-10-03T14:54:55;2.70;;;2.50;;
10651;SDS011;5374;42.742;23.266;2022-10-03T14:57:44;2.40;;;2.20;;
10651;SDS011;5374;42.742;23.266;2022-10-03T15:00:33;3.90;;;3.00;;
10651;SDS011;5374;42.742;23.266;2022-10-03T15:03:32;7.07;;;3.20;;
10651;SDS011;5374;42.742;23.266;2022-10-03T15:06:33;3.30;;;2.97;;
10651;SDS011;5374;42.742;23.266;2022-10-03T15:09:21;3.80;;;2.90;;
10651;SDS011;5374;42.742;23.266;2022-10-03T15:12:13;3.13;;;2.80;;
10651;SDS011;5374;42.742;23.266;2022-10-03T15:15:02;3.00;;;2.80;;
10651;SDS011;5374;42.742;23.266;2022-10-03T15:17:50;4.63;;;2.47;;
10651;SDS011;5374;42.742;23.266;2022-10-03T15:20:39;2.40;;;2.20;;
10651;SDS011;5374;42.742;23.266;2022-10-03T15:23:27;2.53;;;2.20;;
10651;SDS011;5374;42.742;23.266;2022-10-03T15:26:18;3.60;;;2.37;;
10651;SDS011;5374;42.742;23.266;2022-10-03T15:29:10;2.60;;;2.40;;
10651;SDS011;5374;42.742;23.266;2022-10-03T15:32:00;3.33;;;2.80;;
10651;SDS011;5374;42.742;23.266;2022-10-03T15:34:49;4.73;;;2.80;;
10651;SDS011;5374;42.742;23.266;2022-10-03T15:37:39;3.27;;;2.97;;
10651;SDS011;5374;42.742;23.266;2022-10-03T15:40:28;4.87;;;2.90;;
10651;SDS011;5374;42.742;23.266;2022-10-03T15:43:23;3.73;;;2.63;;
10651;SDS011;5374;42.742;23.266;2022-10-03T15:46:15;4.30;;;2.53;;
10651;SDS011;5374;42.742;23.266;2022-10-03T15:49:07;4.53;;;2.70;;
10651;SDS011;5374;42.742;23.266;2022-10-03T15:51:55;4.60;;;2.50;;
10651;SDS011;5374;42.742;23.266;2022-10-03T15:54:44;3.20;;;2.90;;
10651;SDS011;5374;42.742;23.266;2022-10-03T15:57:32;3.80;;;2.50;;
10651;SDS011;5374;42.742;23.266;2022-10-03T16:00:21;7.37;;;5.70;;
10651;SDS011;5374;42.742;23.266;2022-10-03T16:03:11;5.33;;;3.97;;
10651;SDS011;5374;42.742;23.266;2022-10-03T16:06:01;10.27;;;6.43;;
10651;SDS011;5374;42.742;23.266;2022-10-03T16:08:53;7.43;;;5.10;;
10651;SDS011;5374;42.742;23.266;2022-10-03T16:11:43;7.83;;;5.93;;
10651;SDS011;5374;42.742;23.266;2022-10-03T16:14:33;12.93;;;10.77;;
10651;SDS011;5374;42.742;23.266;2022-10-03T16:17:27;9.40;;;6.47;;
10651;SDS011;5374;42.742;23.266;2022-10-03T16:20:19;5.67;;;3.00;;
10651;SDS011;5374;42.742;23.266;2022-10-03T16:23:09;4.90;;;2.97;;
10651;SDS011;5374;42.742;23.266;2022-10-03T16:25:59;3.13;;;2.83;;
10651;SDS011;5374;42.742;23.266;2022-10-03T16:28:48;6.13;;;3.00;;
10651;SDS011;5374;42.742;23.266;2022-10-03T16:31:36;5.33;;;4.07;;
10651;SDS011;5374;42.742;23.266;2022-10-03T16:34:25;4.57;;;4.17;;
10651;SDS011;5374;42.742;23.266;2022-10-03T16:37:17;4.30;;;3.70;;
10651;SDS011;5374;42.742;23.266;2022-10-03T16:40:05;5.10;;;3.60;;
10651;SDS011;5374;42.742;23.266;2022-10-03T16:42:54;6.13;;;3.53;;
10651;SDS011;5374;42.742;23.266;2022-10-03T16:45:43;5.17;;;4.00;;
10651;SDS011;5374;42.742;23.266;2022-10-03T16:48:32;4.10;;;3.30;;
10651;SDS011;5374;42.742;23.266;2022-10-03T16:51:38;3.83;;;2.87;;
10651;SDS011;5374;42.742;23.266;2022-10-03T16:54:27;5.77;;;3.00;;
10651;SDS011;5374;42.742;23.266;2022-10-03T16:57:17;5.23;;;3.97;;
10651;SDS011;5374;42.742;23.266;2022-10-03T17:00:06;7.07;;;4.20;;
10651;SDS011;5374;42.742;23.266;2022-10-03T17:02:59;7.27;;;4.40;;
10651;SDS011;5374;42.742;23.266;2022-10-03T17:05:48;6.80;;;5.00;;
10651;SDS011;5374;42.742;23.266;2022-10-03T17:08:38;7.90;;;4.80;;
10651;SDS011;5374;42.742;23.266;2022-10-03T17:11:34;4.70;;;4.20;;
10651;SDS011;5374;42.742;23.266;2022-10-03T17:14:21;5.83;;;4.50;;
10651;SDS011;5374;42.742;23.266;2022-10-03T17:17:15;7.03;;;5.23;;
10651;SDS011;5374;42.742;23.266;2022-10-03T17:20:10;5.13;;;4.60;;
10651;SDS011;5374;42.742;23.266;2022-10-03T17:22:59;7.50;;;4.50;;
10651;SDS011;5374;42.742;23.266;2022-10-03T17:25:48;5.27;;;3.90;;
10651;SDS011;5374;42.742;23.266;2022-10-03T17:28:38;5.27;;;3.27;;
10651;SDS011;5374;42.742;23.266;2022-10-03T17:31:28;3.80;;;2.90;;
10651;SDS011;5374;42.742;23.266;2022-10-03T17:34:16;3.87;;;3.20;;
10651;SDS011;5374;42.742;23.266;2022-10-03T17:37:06;3.67;;;3.00;;
10651;SDS011;5374;42.742;23.266;2022-10-03T17:39:55;4.20;;;3.80;;
10651;SDS011;5374;42.742;23.266;2022-10-03T17:42:44;6.13;;;3.50;;
10651;SDS011;5374;42.742;23.266;2022-10-03T17:45:34;4.07;;;3.50;;
10651;SDS011;5374;42.742;23.266;2022-10-03T17:48:27;5.17;;;3.67;;
10651;SDS011;5374;42.742;23.266;2022-10-03T17:51:26;7.30;;;3.50;;
10651;SDS011;5374;42.742;23.266;2022-10-03T17:54:14;4.67;;;3.27;;
10651;SDS011;5374;42.742;23.266;2022-10-03T17:57:03;3.83;;;3.20;;
10651;SDS011;5374;42.742;23.266;2022-10-03T17:59:53;4.33;;;3.17;;
10651;SDS011;5374;42.742;23.266;2022-10-03T18:02:44;5.90;;;2.90;;
10651;SDS011;5374;42.742;23.266;2022-10-03T18:05:35;3.57;;;3.17;;
10651;SDS011;5374;42.742;23.266;2022-10-03T18:08:24;3.60;;;2.57;;
10651;SDS011;5374;42.742;23.266;2022-10-03T18:11:14;4.63;;;2.20;;
10651;SDS011;5374;42.742;23.266;2022-10-03T18:14:04;2.57;;;2.00;;
10651;SDS011;5374;42.742;23.266;2022-10-03T18:16:58;4.17;;;2.30;;
10651;SDS011;5374;42.742;23.266;2022-10-03T18:19:53;3.77;;;2.40;;
10651;SDS011;5374;42.742;23.266;2022-10-03T18:22:43;5.00;;;2.57;;
10651;SDS011;5374;42.742;23.266;2022-10-03T18:25:38;2.50;;;2.30;;
10651;SDS011;5374;42.742;23.266;2022-10-03T18:28:47;2.47;;;2.20;;
10651;SDS011;5374;42.742;23.266;2022-10-03T18:31:36;2.37;;;2.13;;
10651;SDS011;5374;42.742;23.266;2022-10-03T18:34:25;2.70;;;2.00;;
10651;SDS011;5374;42.742;23.266;2022-10-03T18:37:48;3.30;;;1.97;;
10651;SDS011;5374;42.742;23.266;2022-10-03T18:40:24;4.27;;;1.83;;
10651;SDS011;5374;42.742;23.266;2022-10-03T18:43:24;3.10;;;1.90;;
10651;SDS011;5374;42.742;23.266;2022-10-03T18:46:13;3.37;;;1.90;;
10651;SDS011;5374;42.742;23.266;2022-10-03T18:49:01;2.60;;;1.80;;
10651;SDS011;5374;42.742;23.266;2022-10-03T18:51:52;4.60;;;1.80;;
10651;SDS011;5374;42.742;23.266;2022-10-03T18:54:47;2.50;;;1.60;;
10651;SDS011;5374;42.742;23.266;2022-10-03T18:57:39;4.40;;;1.80;;
10651;SDS011;5374;42.742;23.266;2022-10-03T19:00:29;2.40;;;1.50;;
10651;SDS011;5374;42.742;23.266;2022-10-03T19:03:17;4.43;;;2.30;;
10651;SDS011;5374;42.742;23.266;2022-10-03T19:06:05;6.27;;;2.17;;
10651;SDS011;5374;42.742;23.266;2022-10-03T19:08:57;4.27;;;2.80;;
10651;SDS011;5374;42.742;23.266;2022-10-03T19:11:46;4.27;;;2.87;;
10651;SDS011;5374;42.742;23.266;2022-10-03T19:14:37;4.57;;;2.50;;
10651;SDS011;5374;42.742;23.266;2022-10-03T19:17:31;4.40;;;2.63;;
10651;SDS011;5374;42.742;23.266;2022-10-03T19:20:21;2.10;;;1.90;;
10651;SDS011;5374;42.742;23.266;2022-10-03T19:23:09;3.50;;;2.53;;
10651;SDS011;5374;42.742;23.266;2022-10-03T19:25:59;3.57;;;2.10;;
10651;SDS011;5374;42.742;23.266;2022-10-03T19:28:49;4.60;;;1.87;;
10651;SDS011;5374;42.742;23.266;2022-10-03T19:31:37;2.67;;;1.80;;
10651;SDS011;5374;42.742;23.266;2022-10-03T19:34:27;3.83;;;1.70;;
10651;SDS011;5374;42.742;23.266;2022-10-03T19:37:27;2.53;;;2.00;;
10651;SDS011;5374;42.742;23.266;2022-10-03T19:40:21;3.73;;;2.27;;
10651;SDS011;5374;42.742;23.266;2022-10-03T19:46:24;3.63;;;1.77;;
10651;SDS011;5374;42.742;23.266;2022-10-03T19:52:23;3.07;;;2.30;;
10651;SDS011;5374;42.742;23.266;2022-10-03T19:55:11;2.80;;;2.03;;
10651;SDS011;5374;42.742;23.266;2022-10-03T19:58:00;2.40;;;2.03;;
10651;SDS011;5374;42.742;23.266;2022-10-03T20:00:49;5.33;;;2.17;;
10651;SDS011;5374;42.742;23.266;2022-10-03T20:03:38;5.13;;;1.80;;
10651;SDS011;5374;42.742;23.266;2022-10-03T20:06:27;4.50;;;1.90;;
10651;SDS011;5374;42.742;23.266;2022-10-03T20:09:17;2.90;;;1.90;;
10651;SDS011;5374;42.742;23.266;2022-10-03T20:12:06;2.37;;;1.63;;
10651;SDS011;5374;42.742;23.266;2022-10-03T20:14:56;4.17;;;1.80;;
10651;SDS011;5374;42.742;23.266;2022-10-03T20:17:43;1.93;;;1.70;;
10651;SDS011;5374;42.742;23.266;2022-10-03T20:20:32;6.10;;;2.13;;
10651;SDS011;5374;42.742;23.266;2022-10-03T20:23:20;4.60;;;2.00;;
10651;SDS011;5374;42.742;23.266;2022-10-03T20:26:11;4.23;;;1.80;;
10651;SDS011;5374;42.742;23.266;2022-10-03T20:29:01;8.03;;;1.70;;
10651;SDS011;5374;42.742;23.266;2022-10-03T20:31:56;3.70;;;1.73;;
10651;SDS011;5374;42.742;23.266;2022-10-03T20:34:48;2.67;;;1.60;;
10651;SDS011;5374;42.742;23.266;2022-10-03T20:37:42;4.73;;;1.80;;
10651;SDS011;5374;42.742;23.266;2022-10-03T20:40:35;4.67;;;2.17;;
10651;SDS011;5374;42.742;23.266;2022-10-03T20:43:34;3.00;;;1.63;;
10651;SDS011;5374;42.742;23.266;2022-10-03T20:46:23;4.63;;;2.03;;
10651;SDS011;5374;42.742;23.266;2022-10-03T20:49:22;3.13;;;1.70;;
10651;SDS011;5374;42.742;23.266;2022-10-03T20:52:15;3.40;;;1.93;;
10651;SDS011;5374;42.742;23.266;2022-10-03T20:55:07;3.13;;;1.70;;
10651;SDS011;5374;42.742;23.266;2022-10-03T20:58:09;2.10;;;1.80;;
10651;SDS011;5374;42.742;23.266;2022-10-03T21:01:02;3.27;;;2.10;;
10651;SDS011;5374;42.742;23.266;2022-10-03T21:03:59;3.67;;;2.10;;
10651;SDS011;5374;42.742;23.266;2022-10-03T21:06:51;3.90;;;2.10;;
10651;SDS011;5374;42.742;23.266;2022-10-03T21:09:46;5.63;;;2.07;;
10651;SDS011;5374;42.742;23.266;2022-10-03T21:12:36;3.50;;;2.00;;
10651;SDS011;5374;42.742;23.266;2022-10-03T21:15:33;2.67;;;1.87;;
10651;SDS011;5374;42.742;23.266;2022-10-03T21:18:21;2.53;;;2.07;;
10651;SDS011;5374;42.742;23.266;2022-10-03T21:21:11;3.40;;;1.83;;
10651;SDS011;5374;42.742;23.266;2022-10-03T21:24:01;3.37;;;1.80;;
10651;SDS011;5374;42.742;23.266;2022-10-03T21:26:51;3.40;;;2.17;;
10651;SDS011;5374;42.742;23.266;2022-10-03T21:29:40;2.53;;;1.93;;